Kuala Lumpur, Malaysia
Current Conditions -  °F | °C
As of 2:00 AM on Sunday 26 Oct 2014 (Local Time) from WMSA Reporting Station
Haze Haze  
Wind Chill: 79°   Ceiling: 27000
Heat Index: 82°   Visibility: 2.1mi
Dew Point: 75°   Wind: 1mph
Humidity: 89%   Direction: 10°N
Pressure: 29.85"   Gusts: NA
Location:  3.16°N, 101.71°E
Report Text: WMSA 251800Z 01001KT 3500 HZ FEW016CB BKN270 26/24 Q1011
Loading
Personal Weather Stations






























Interactive Weather Map
Tropical Storm Tracking
New forecast layout! Learn more

10-Day Weather Forecast

Advertisements
Track Severe Weather on mobile